Trabzon International Airport Trabzon TR
ICAO: LTCG
IATA: TZX
Category: Large
Scheduled Services: Yes

Elevation: 104 ft
TransAlt. 12000 ft.

Airport Communications:
APP:120.1
GND:121.9
TWR:120.1

LTCG Zoom In..

If you have problems with the map follow the link
https://www.worldairports.se/pages/airport.php?
ICAO=LTCG

Runways:

(A) RW 11 length 8661 ft width 148 ft
ILS 109.10 / hdg 107

(B) RW 29 length 8661 ft width 148 ft
---- / hdg 287

Location; LTCG
Day. 22 / Time. 12.20 Zulu
* QNH: 1018
* Temperature: 09° c. 48.2°f.
* Wind from: 100° Speed 09 kn.
Dewpoint: 06° c.
Visibility: 8000 m.
Clouds: Broken 2800 ft.
No significant changes expected in the near future.

LTCG 221220Z 10009KT 8000 BKN028 09/06 Q1018 NOSIG


Wind From 100°
Speed 09 kn.

 
 
jpsmedia.com for Web Design worldairports.se 2019   terms of use